createdAt,value
2022-10-04T00:01:28.176Z,4.00
2022-10-04T00:04:08.448Z,5.10
2022-10-04T00:06:37.750Z,3.70
2022-10-04T00:09:10.570Z,4.63
2022-10-04T00:11:44.734Z,4.53
2022-10-04T00:14:18.492Z,4.70
2022-10-04T00:16:47.490Z,4.00
2022-10-04T00:19:43.562Z,4.43
2022-10-04T00:22:20.414Z,4.30
2022-10-04T00:25:21.826Z,3.80
2022-10-04T00:28:28.654Z,4.20
2022-10-04T00:31:20.059Z,3.90
2022-10-04T00:33:49.971Z,4.00
2022-10-04T00:36:47.241Z,4.40
2022-10-04T00:39:18.174Z,4.00
2022-10-04T00:41:58.961Z,4.03
2022-10-04T00:44:33.664Z,4.77
2022-10-04T00:47:06.159Z,5.00
2022-10-04T00:49:42.178Z,4.33
2022-10-04T00:52:16.845Z,4.60
2022-10-04T00:54:50.441Z,4.40
2022-10-04T00:57:23.902Z,4.20
2022-10-04T00:59:55.078Z,4.10
2022-10-04T01:02:27.263Z,4.37
2022-10-04T01:05:00.740Z,3.83
2022-10-04T01:07:33.997Z,4.37
2022-10-04T01:10:08.334Z,3.67
2022-10-04T01:12:48.605Z,4.13
2022-10-04T01:15:23.880Z,4.17
2022-10-04T01:18:09.475Z,5.30
2022-10-04T01:20:41.290Z,3.87
2022-10-04T01:23:12.292Z,4.27
2022-10-04T01:25:49.067Z,4.17
2022-10-04T01:28:18.519Z,3.67
2022-10-04T01:30:46.660Z,3.93
2022-10-04T01:33:15.030Z,3.80
2022-10-04T01:35:42.737Z,4.67
2022-10-04T01:38:12.885Z,4.30
2022-10-04T01:40:49.684Z,4.10
2022-10-04T01:43:24.067Z,5.17
2022-10-04T01:45:56.740Z,4.03
2022-10-04T01:49:03.267Z,4.53
2022-10-04T01:51:35.993Z,4.60
2022-10-04T01:54:09.513Z,4.07
2022-10-04T01:56:44.363Z,3.90
2022-10-04T01:59:18.504Z,4.00
2022-10-04T02:01:51.062Z,4.20
2022-10-04T02:04:22.841Z,4.00
2022-10-04T02:06:54.875Z,4.37
2022-10-04T02:09:27.521Z,4.37
2022-10-04T02:11:57.478Z,4.17
2022-10-04T02:14:28.951Z,4.50
2022-10-04T02:16:56.951Z,4.50
2022-10-04T02:19:30.007Z,4.70
2022-10-04T02:21:58.857Z,4.70
2022-10-04T02:24:28.193Z,3.60
2022-10-04T02:26:56.230Z,5.33
2022-10-04T02:29:23.893Z,4.10
2022-10-04T02:32:11.019Z,4.53
2022-10-04T02:34:40.932Z,5.07
2022-10-04T02:37:09.733Z,4.57
2022-10-04T02:39:45.767Z,4.60
2022-10-04T02:42:18.818Z,4.77
2022-10-04T02:44:53.129Z,4.20
2022-10-04T02:47:22.764Z,4.20
2022-10-04T02:49:54.425Z,4.23
2022-10-04T02:52:27.280Z,5.20
2022-10-04T02:55:03.121Z,5.00
2022-10-04T02:57:33.609Z,5.10
2022-10-04T03:00:11.081Z,5.10
2022-10-04T03:02:40.579Z,4.70
2022-10-04T03:05:11.709Z,4.77
2022-10-04T03:07:40.685Z,4.20
2022-10-04T03:10:13.452Z,3.80
2022-10-04T03:12:42.061Z,4.13
2022-10-04T03:15:12.151Z,3.87
2022-10-04T03:17:41.675Z,4.40
2022-10-04T03:20:12.774Z,4.40
2022-10-04T03:22:46.082Z,5.00
2022-10-04T03:25:21.692Z,4.77
2022-10-04T03:27:51.762Z,4.70
2022-10-04T03:30:20.686Z,5.87
2022-10-04T03:32:49.916Z,4.90
2022-10-04T03:35:29.153Z,5.50
2022-10-04T03:37:59.085Z,6.00
2022-10-04T03:40:33.608Z,5.10
2022-10-04T03:43:04.328Z,4.87
2022-10-04T03:45:35.491Z,5.10
2022-10-04T03:48:07.863Z,4.67
2022-10-04T03:50:41.063Z,4.50
2022-10-04T03:53:16.604Z,4.50
2022-10-04T03:55:46.725Z,7.20
2022-10-04T03:58:17.008Z,7.40
2022-10-04T04:00:53.404Z,6.37
2022-10-04T04:03:23.195Z,5.73
2022-10-04T04:05:54.008Z,7.03
2022-10-04T04:08:29.408Z,6.77
2022-10-04T04:11:00.842Z,6.90
2022-10-04T04:13:33.032Z,7.50
2022-10-04T04:16:03.960Z,7.83
2022-10-04T04:18:35.205Z,6.20
2022-10-04T04:21:08.524Z,6.37
2022-10-04T04:23:38.905Z,6.83
2022-10-04T04:26:20.281Z,6.50
2022-10-04T04:28:51.832Z,6.30
2022-10-04T04:31:24.004Z,6.77
2022-10-04T04:33:59.645Z,6.47
2022-10-04T04:36:28.678Z,7.33
2022-10-04T04:39:25.789Z,5.17
2022-10-04T04:41:55.555Z,4.27
2022-10-04T04:44:24.483Z,4.00
2022-10-04T04:46:53.591Z,4.87
2022-10-04T04:49:22.634Z,4.50
2022-10-04T04:51:52.986Z,4.90
2022-10-04T04:54:25.169Z,5.43
2022-10-04T04:56:56.969Z,4.70
2022-10-04T04:59:28.574Z,5.70
2022-10-04T05:01:56.858Z,4.57
2022-10-04T05:04:26.606Z,4.50
2022-10-04T05:07:03.207Z,5.27
2022-10-04T05:09:33.288Z,4.77
2022-10-04T05:12:09.519Z,4.03
2022-10-04T05:14:41.383Z,4.70
2022-10-04T05:17:09.316Z,3.93
2022-10-04T05:19:40.714Z,3.57
2022-10-04T05:22:13.350Z,4.37
2022-10-04T05:24:44.027Z,4.20
2022-10-04T05:27:19.410Z,4.10
2022-10-04T05:30:02.109Z,3.47
2022-10-04T05:32:41.129Z,3.67
2022-10-04T05:35:17.394Z,4.10
2022-10-04T05:37:56.795Z,3.90
2022-10-04T05:40:43.230Z,4.70
2022-10-04T05:43:32.952Z,4.07
2022-10-04T05:46:26.302Z,4.10
2022-10-04T05:48:56.343Z,3.70
2022-10-04T05:51:26.692Z,4.23
2022-10-04T05:53:56.336Z,4.20
2022-10-04T05:56:56.104Z,3.40
2022-10-04T05:59:55.361Z,3.67
2022-10-04T06:02:33.413Z,4.30
2022-10-04T06:05:12.401Z,3.50
2022-10-04T06:07:44.502Z,3.37
2022-10-04T06:10:41.114Z,4.50
2022-10-04T06:13:18.206Z,4.00
2022-10-04T06:16:12.363Z,3.60
2022-10-04T06:19:14.319Z,3.80
2022-10-04T06:21:57.645Z,4.50
2022-10-04T06:24:30.640Z,4.03
2022-10-04T06:27:04.250Z,4.37
2022-10-04T06:29:36.271Z,4.50
2022-10-04T06:35:21.539Z,4.40
2022-10-04T06:38:23.571Z,5.77
2022-10-04T06:41:17.763Z,4.60
2022-10-04T06:43:59.617Z,4.43
2022-10-04T06:46:33.695Z,4.80
2022-10-04T06:49:15.484Z,6.20
2022-10-04T06:52:17.215Z,5.50
2022-10-04T06:55:09.763Z,5.10
2022-10-04T06:58:12.784Z,4.97
2022-10-04T07:00:49.320Z,4.30
2022-10-04T07:03:23.569Z,4.60
2022-10-04T07:05:56.156Z,6.00
2022-10-04T07:08:35.486Z,5.57
2022-10-04T07:11:12.494Z,6.03
2022-10-04T07:13:47.982Z,5.03
2022-10-04T07:16:30.181Z,4.70
2022-10-04T07:19:09.960Z,4.43
2022-10-04T07:21:46.451Z,4.30
2022-10-04T07:24:25.809Z,4.63
2022-10-04T07:26:55.988Z,5.10
2022-10-04T07:29:28.498Z,5.20
2022-10-04T07:32:09.346Z,4.60
2022-10-04T07:34:44.636Z,4.57
2022-10-04T07:37:14.501Z,5.40
2022-10-04T07:39:51.464Z,5.47
2022-10-04T07:42:28.731Z,5.93
2022-10-04T07:45:05.248Z,6.20
2022-10-04T07:47:33.525Z,5.80
2022-10-04T07:50:01.691Z,6.40
2022-10-04T07:52:52.644Z,6.20
2022-10-04T07:55:28.703Z,5.97
2022-10-04T07:58:08.426Z,6.00
2022-10-04T08:00:46.184Z,5.03
2022-10-04T08:03:38.106Z,5.30
2022-10-04T08:06:14.575Z,5.03
2022-10-04T08:09:01.880Z,4.40
2022-10-04T08:11:42.781Z,4.97
2022-10-04T08:14:26.527Z,4.80
2022-10-04T08:17:06.347Z,4.40
2022-10-04T08:19:46.435Z,4.57
2022-10-04T08:22:26.361Z,4.17
2022-10-04T08:25:03.964Z,4.00
2022-10-04T08:28:27.222Z,4.60
2022-10-04T08:31:06.415Z,4.50
2022-10-04T08:33:52.636Z,3.83
2022-10-04T08:36:34.132Z,4.90
2022-10-04T08:39:02.053Z,4.50
2022-10-04T08:41:59.194Z,5.13
2022-10-04T08:45:03.380Z,4.43
2022-10-04T08:48:08.375Z,4.30
2022-10-04T08:51:27.228Z,5.50
2022-10-04T08:54:35.891Z,4.40
2022-10-04T08:57:20.322Z,5.00
2022-10-04T09:00:11.167Z,4.70
2022-10-04T09:03:08.596Z,5.17
2022-10-04T09:05:54.936Z,5.17
2022-10-04T09:09:05.410Z,4.90
2022-10-04T09:12:10.439Z,4.43
2022-10-04T09:15:05.133Z,4.53
2022-10-04T09:17:44.510Z,4.40
2022-10-04T09:20:39.345Z,5.00
2022-10-04T09:23:24.147Z,4.97
2022-10-04T09:26:06.336Z,4.53
2022-10-04T09:29:04.762Z,4.63
2022-10-04T09:32:14.624Z,5.47
2022-10-04T09:35:03.959Z,5.00
2022-10-04T09:37:43.259Z,4.47
2022-10-04T09:40:45.343Z,4.20
2022-10-04T09:43:49.308Z,4.30
2022-10-04T09:46:41.646Z,4.43
2022-10-04T09:49:33.030Z,5.10
2022-10-04T09:52:15.409Z,5.43
2022-10-04T09:54:58.509Z,6.17
2022-10-04T09:57:46.000Z,5.10
2022-10-04T10:00:22.534Z,5.30
2022-10-04T10:03:48.419Z,5.40
2022-10-04T10:06:33.114Z,5.50
2022-10-04T10:09:18.447Z,5.00
2022-10-04T10:12:10.753Z,5.10
2022-10-04T10:14:56.734Z,5.27
2022-10-04T10:17:37.952Z,5.10
2022-10-04T10:20:44.698Z,5.57
2022-10-04T10:23:30.047Z,4.67
2022-10-04T10:26:22.871Z,3.60
2022-10-04T10:29:37.495Z,4.83
2022-10-04T10:32:37.475Z,5.57
2022-10-04T10:35:29.931Z,5.40
2022-10-04T10:38:18.670Z,4.67
2022-10-04T10:41:01.396Z,3.97
2022-10-04T10:43:42.536Z,4.67
2022-10-04T10:46:28.904Z,4.53
2022-10-04T10:49:23.900Z,3.80
2022-10-04T10:52:20.167Z,4.10
2022-10-04T10:55:12.462Z,3.90
2022-10-04T10:58:21.168Z,4.60
2022-10-04T11:01:00.937Z,3.90
2022-10-04T11:03:54.895Z,3.37
2022-10-04T11:07:00.732Z,3.20
2022-10-04T11:09:35.265Z,3.57
2022-10-04T11:12:35.686Z,2.67
2022-10-04T11:15:41.388Z,3.10
2022-10-04T11:19:00.547Z,3.40
2022-10-04T11:22:07.210Z,3.40
2022-10-04T11:25:03.570Z,2.77
2022-10-04T11:27:49.531Z,3.10
2022-10-04T11:30:23.660Z,2.57
2022-10-04T11:33:21.192Z,2.40
2022-10-04T11:36:16.379Z,2.63
2022-10-04T11:39:03.543Z,3.00
2022-10-04T11:41:47.654Z,2.27
2022-10-04T11:44:59.813Z,2.40
2022-10-04T11:47:38.545Z,2.63
2022-10-04T11:50:26.308Z,2.30
2022-10-04T11:53:36.080Z,2.07
2022-10-04T11:56:34.357Z,2.33
2022-10-04T11:59:17.753Z,2.13
2022-10-04T12:02:32.274Z,2.20
2022-10-04T12:05:39.168Z,2.07
2022-10-04T12:08:23.075Z,2.10
2022-10-04T12:11:10.845Z,2.00
2022-10-04T12:13:55.794Z,1.70
2022-10-04T12:16:57.031Z,1.80
2022-10-04T12:19:51.258Z,1.97
2022-10-04T12:22:40.338Z,2.27
2022-10-04T12:25:49.760Z,2.27
2022-10-04T12:29:01.802Z,2.00
2022-10-04T12:31:33.508Z,2.10
2022-10-04T12:34:14.818Z,1.67
2022-10-04T12:37:13.976Z,2.90
2022-10-04T12:40:07.602Z,2.17
2022-10-04T12:42:45.754Z,2.17
2022-10-04T12:45:40.588Z,1.67
2022-10-04T12:48:24.219Z,2.47
2022-10-04T12:51:03.122Z,2.90
2022-10-04T12:53:45.463Z,1.93
2022-10-04T12:56:22.958Z,1.73
2022-10-04T12:59:05.158Z,1.70
2022-10-04T13:01:45.849Z,1.93
2022-10-04T13:04:29.499Z,1.90
2022-10-04T13:07:12.165Z,1.53
2022-10-04T13:10:22.439Z,1.43
2022-10-04T13:13:15.346Z,1.90
2022-10-04T13:18:49.791Z,1.50
2022-10-04T13:21:23.947Z,1.70
2022-10-04T13:24:04.807Z,1.23
2022-10-04T13:26:42.320Z,1.70
2022-10-04T13:29:22.965Z,1.83
2022-10-04T13:31:58.834Z,1.70
2022-10-04T13:34:37.453Z,1.70
2022-10-04T13:37:27.477Z,1.70
2022-10-04T13:40:22.196Z,1.67
2022-10-04T13:43:04.755Z,1.60
2022-10-04T13:45:45.515Z,1.50
2022-10-04T13:48:36.233Z,2.03
2022-10-04T13:51:40.977Z,1.10
2022-10-04T13:54:33.437Z,1.60
2022-10-04T13:57:16.399Z,1.80
2022-10-04T13:59:49.124Z,1.70
2022-10-04T14:02:42.323Z,1.67
2022-10-04T14:05:38.260Z,1.70
2022-10-04T14:08:22.211Z,1.48
2022-10-04T14:11:22.299Z,1.33
2022-10-04T14:14:10.539Z,1.67
2022-10-04T14:17:23.706Z,1.55
2022-10-04T14:20:09.231Z,1.60
2022-10-04T14:22:51.978Z,1.80
2022-10-04T14:25:57.395Z,1.58
2022-10-04T14:28:53.283Z,1.88
2022-10-04T14:31:49.074Z,1.60
2022-10-04T14:34:37.705Z,1.63
2022-10-04T14:37:43.322Z,2.08
2022-10-04T14:40:31.058Z,2.20
2022-10-04T14:43:20.606Z,2.00
2022-10-04T14:46:07.312Z,2.00
2022-10-04T14:49:11.563Z,1.85
2022-10-04T14:52:08.830Z,1.30
2022-10-04T14:54:47.570Z,2.25
2022-10-04T14:57:43.586Z,1.63
2022-10-04T15:00:21.773Z,1.48
2022-10-04T15:03:13.681Z,1.35
2022-10-04T15:06:01.404Z,1.90
2022-10-04T15:09:21.269Z,1.50
2022-10-04T15:12:27.278Z,1.40
2022-10-04T15:15:12.401Z,1.50
2022-10-04T15:17:56.204Z,1.40
2022-10-04T15:20:43.925Z,1.48
2022-10-04T15:23:18.240Z,1.48
2022-10-04T15:25:48.533Z,1.55
2022-10-04T15:28:35.636Z,1.23
2022-10-04T15:31:12.328Z,1.55
2022-10-04T15:33:55.683Z,1.75
2022-10-04T15:36:51.086Z,1.58
2022-10-04T15:40:12.658Z,1.80
2022-10-04T15:42:54.610Z,1.42
2022-10-04T15:45:50.659Z,1.25
2022-10-04T15:48:32.073Z,1.30
2022-10-04T15:51:15.896Z,1.38
2022-10-04T15:54:12.479Z,1.45
2022-10-04T15:56:55.655Z,1.50
2022-10-04T15:59:35.681Z,1.83
2022-10-04T16:02:32.236Z,1.50
2022-10-04T16:05:14.133Z,1.70
2022-10-04T16:08:04.256Z,1.03
2022-10-04T16:10:58.620Z,1.37
2022-10-04T16:13:57.049Z,1.10
2022-10-04T16:17:00.108Z,1.10
2022-10-04T16:19:48.487Z,1.27
2022-10-04T16:22:20.046Z,1.60
2022-10-04T16:24:53.576Z,1.20
2022-10-04T16:27:57.389Z,1.70
2022-10-04T16:30:28.944Z,1.67
2022-10-04T16:33:26.447Z,1.73
2022-10-04T16:36:11.162Z,1.80
2022-10-04T16:39:10.633Z,1.77
2022-10-04T16:41:54.502Z,1.87
2022-10-04T16:44:35.344Z,1.97
2022-10-04T16:47:23.838Z,1.73
2022-10-04T16:49:54.997Z,2.30
2022-10-04T16:52:34.625Z,2.33
2022-10-04T16:55:39.080Z,1.93
2022-10-04T16:58:55.964Z,2.10
2022-10-04T17:02:11.510Z,2.20
2022-10-04T17:04:57.039Z,2.47
2022-10-04T17:07:35.147Z,2.80
2022-10-04T17:10:20.311Z,2.50
2022-10-04T17:12:56.082Z,2.40
2022-10-04T17:15:45.799Z,2.00
2022-10-04T17:18:20.545Z,2.30
2022-10-04T17:20:58.834Z,2.20
2022-10-04T17:23:54.949Z,2.27
2022-10-04T17:26:39.553Z,2.10
2022-10-04T17:29:25.957Z,2.53
2022-10-04T17:31:58.825Z,3.00
2022-10-04T17:34:41.383Z,3.00
2022-10-04T17:37:21.246Z,2.80
2022-10-04T17:39:53.900Z,3.50
2022-10-04T17:42:30.352Z,3.77
2022-10-04T17:45:16.110Z,2.97
2022-10-04T17:48:07.450Z,2.83
2022-10-04T17:51:00.487Z,2.43
2022-10-04T17:53:51.650Z,3.87
2022-10-04T17:56:30.789Z,3.37
2022-10-04T17:59:00.642Z,2.93
2022-10-04T18:01:33.847Z,3.20
2022-10-04T18:04:10.315Z,3.33
2022-10-04T18:06:43.408Z,3.63
2022-10-04T18:13:45.913Z,5.00
2022-10-04T18:16:22.493Z,3.60
2022-10-04T18:18:51.696Z,4.00
2022-10-04T18:21:26.909Z,4.00
2022-10-04T18:23:58.228Z,3.77
2022-10-04T18:26:29.633Z,4.20
2022-10-04T18:29:01.812Z,3.13
2022-10-04T18:31:38.067Z,3.90
2022-10-04T18:34:31.271Z,4.17
2022-10-04T18:37:07.320Z,4.20
2022-10-04T18:39:50.545Z,3.90
2022-10-04T18:42:27.513Z,4.00
2022-10-04T18:45:00.656Z,3.87
2022-10-04T18:47:36.592Z,4.03
2022-10-04T18:50:19.158Z,4.00
2022-10-04T18:53:08.210Z,3.90
2022-10-04T18:55:47.013Z,4.03
2022-10-04T18:58:47.557Z,3.63
2022-10-04T19:01:55.025Z,3.77
2022-10-04T19:04:32.804Z,3.63
2022-10-04T19:07:10.720Z,3.83
2022-10-04T19:10:00.502Z,4.00
2022-10-04T19:12:35.177Z,3.77
2022-10-04T19:15:10.554Z,3.60
2022-10-04T19:17:49.459Z,3.03
2022-10-04T19:20:24.949Z,3.20
2022-10-04T19:23:04.209Z,2.87
2022-10-04T19:25:39.565Z,3.80
2022-10-04T19:28:13.680Z,3.57
2022-10-04T19:31:00.009Z,3.73
2022-10-04T19:33:39.228Z,4.13
2022-10-04T19:36:18.353Z,4.00
2022-10-04T19:39:07.034Z,3.77
2022-10-04T19:41:49.122Z,3.70
2022-10-04T19:44:42.849Z,4.13
2022-10-04T19:47:22.854Z,4.13
2022-10-04T19:50:00.421Z,5.07
2022-10-04T19:52:37.549Z,3.57
2022-10-04T19:55:17.512Z,4.20
2022-10-04T19:57:50.683Z,3.53
2022-10-04T20:00:20.440Z,3.80
2022-10-04T20:02:49.044Z,3.60
2022-10-04T20:05:24.994Z,4.10
2022-10-04T20:07:57.782Z,3.47
2022-10-04T20:10:33.698Z,3.17
2022-10-04T20:13:23.535Z,3.70
2022-10-04T20:15:53.893Z,3.83
2022-10-04T20:18:58.742Z,3.70
2022-10-04T20:21:32.113Z,3.17
2022-10-04T20:24:01.449Z,4.00
2022-10-04T20:26:57.162Z,3.00
2022-10-04T20:30:14.841Z,3.83
2022-10-04T20:32:57.397Z,3.20
2022-10-04T20:36:09.109Z,2.83
2022-10-04T20:38:47.913Z,3.30
2022-10-04T20:42:02.420Z,3.33
2022-10-04T20:44:54.469Z,2.73
2022-10-04T20:47:42.915Z,3.03
2022-10-04T20:50:24.345Z,3.00
2022-10-04T20:52:55.933Z,3.20
2022-10-04T20:55:28.692Z,2.83
2022-10-04T20:58:02.546Z,3.63
2022-10-04T21:00:34.489Z,3.93
2022-10-04T21:03:26.464Z,3.17
2022-10-04T21:06:02.671Z,3.30
2022-10-04T21:08:31.444Z,3.83
2022-10-04T21:11:19.414Z,3.37
2022-10-04T21:13:59.792Z,3.70
2022-10-04T21:16:40.041Z,4.20
2022-10-04T21:19:48.174Z,4.40
2022-10-04T21:22:38.716Z,3.53
2022-10-04T21:25:33.818Z,4.13
2022-10-04T21:28:25.820Z,4.17
2022-10-04T21:30:53.508Z,3.93
2022-10-04T21:33:21.332Z,3.67
2022-10-04T21:35:50.921Z,4.17
2022-10-04T21:38:20.094Z,4.07
2022-10-04T21:40:47.916Z,4.13
2022-10-04T21:43:15.744Z,4.10
2022-10-04T21:45:45.273Z,3.90
2022-10-04T21:48:13.316Z,3.97
2022-10-04T21:50:41.244Z,4.00
2022-10-04T21:53:09.595Z,4.53
2022-10-04T21:55:37.840Z,4.37
2022-10-04T21:58:06.086Z,4.57
2022-10-04T22:00:34.514Z,5.17
2022-10-04T22:03:07.012Z,5.07
2022-10-04T22:05:34.839Z,3.67
2022-10-04T22:08:02.957Z,4.27
2022-10-04T22:10:31.103Z,4.40
2022-10-04T22:12:59.496Z,3.77
2022-10-04T22:15:28.202Z,4.10
2022-10-04T22:17:57.263Z,3.80
2022-10-04T22:20:29.135Z,4.70
2022-10-04T22:22:57.629Z,4.10
2022-10-04T22:25:28.519Z,3.73
2022-10-04T22:27:56.383Z,3.40
2022-10-04T22:30:27.746Z,3.70
2022-10-04T22:32:57.711Z,3.60
2022-10-04T22:35:29.770Z,3.60
2022-10-04T22:37:58.713Z,4.13
2022-10-04T22:40:28.550Z,3.50
2022-10-04T22:42:59.232Z,4.00
2022-10-04T22:45:29.171Z,4.00
2022-10-04T22:48:00.515Z,3.97
2022-10-04T22:50:33.587Z,3.93
2022-10-04T22:53:04.684Z,4.70
2022-10-04T22:55:33.157Z,3.80
2022-10-04T22:58:02.423Z,4.47
2022-10-04T23:00:30.842Z,4.00
2022-10-04T23:02:58.530Z,4.27
2022-10-04T23:05:27.123Z,4.77
2022-10-04T23:07:56.098Z,4.37
2022-10-04T23:10:24.685Z,4.53
2022-10-04T23:12:52.839Z,5.10
2022-10-04T23:15:21.777Z,4.83
2022-10-04T23:17:55.627Z,4.70
2022-10-04T23:20:23.925Z,4.70
2022-10-04T23:22:54.529Z,4.87
2022-10-04T23:25:28.077Z,4.10
2022-10-04T23:27:59.854Z,4.40
2022-10-04T23:30:27.720Z,5.50
2022-10-04T23:33:01.367Z,4.50
2022-10-04T23:35:32.515Z,4.30
2022-10-04T23:38:03.561Z,4.60
2022-10-04T23:40:33.335Z,4.43
2022-10-04T23:43:05.027Z,3.70
2022-10-04T23:45:34.791Z,3.70
2022-10-04T23:48:02.686Z,4.07
2022-10-04T23:50:32.865Z,3.77
2022-10-04T23:53:04.966Z,4.37
2022-10-04T23:55:37.371Z,3.97
2022-10-04T23:58:15.835Z,4.43
